Time;durP1;ratioP1;P1;durP2;ratioP2;P2;SDS_P1;SDS_P2;PMS_P1;PMS_P2;Temp;Humidity;BMP_temperature;BMP_pressure;BME280_temperature;BME280_humidity;BME280_pressure;Samples;Min_cycle;Max_cycle;Signal;HPM_P1;HPM_P2
2022/08/03 00:02:22;;;;;;;1999.90;999.90;;;;;;;21.54;55.08;95488.25;5051163;28;20056;-71
2022/08/03 00:04:48;;;;;;;1999.90;999.90;;;;;;;21.75;54.96;95506.72;5070683;28;20486;-70
2022/08/03 00:07:13;;;;;;;1999.90;999.90;;;;;;;21.13;55.02;95402.59;5051804;28;20024;-72
2022/08/03 00:09:38;;;;;;;1999.90;999.90;;;;;;;21.45;54.63;95462.63;5070395;28;20090;-72
2022/08/03 00:12:04;;;;;;;1999.90;999.90;;;;;;;21.66;54.78;95486.50;5054959;28;20074;-71
2022/08/03 00:14:29;;;;;;;1999.90;999.90;;;;;;;21.74;55.11;95528.75;5052420;28;20491;-71
2022/08/03 00:16:55;;;;;;;1999.90;999.90;;;;;;;21.60;54.78;95507.69;5039443;28;20461;-72
2022/08/03 00:19:20;;;;;;;1999.90;999.90;;;;;;;21.29;54.88;95474.34;5050490;28;20017;-71
2022/08/03 00:21:45;;;;;;;1999.90;999.90;;;;;;;21.54;54.94;95514.53;5050442;28;20025;-71
2022/08/03 00:24:11;;;;;;;1999.90;999.90;;;;;;;21.44;55.05;95513.22;5032482;28;20032;-71
2022/08/03 00:26:36;;;;;;;1999.90;999.90;;;;;;;21.19;54.98;95471.47;5052445;28;20052;-71
2022/08/03 00:29:02;;;;;;;1999.90;999.90;;;;;;;20.97;55.07;95435.19;5041666;28;20025;-71
2022/08/03 00:31:27;;;;;;;1999.90;999.90;;;;;;;21.14;55.16;95463.66;5058696;28;20025;-70
2022/08/03 00:33:52;;;;;;;1999.90;999.90;;;;;;;20.75;55.09;95402.44;5049840;28;20025;-71
2022/08/03 00:36:18;;;;;;;1999.90;999.90;;;;;;;21.56;55.28;95533.13;5032284;28;20037;-71
2022/08/03 00:38:43;;;;;;;1999.90;999.90;;;;;;;21.44;55.08;95528.69;5060645;28;20138;-71
2022/08/03 00:41:08;;;;;;;1999.90;999.90;;;;;;;20.93;55.21;95467.59;5069697;28;20028;-72
2022/08/03 00:43:34;;;;;;;1999.90;999.90;;;;;;;21.12;55.28;95482.97;5068625;28;20366;-71
2022/08/03 00:45:59;;;;;;;1999.90;999.90;;;;;;;20.67;55.45;95413.47;5068184;28;20389;-71
2022/08/03 00:48:24;;;;;;;1999.90;999.90;;;;;;;20.96;55.55;95460.69;5052413;28;20471;-72
2022/08/03 00:50:50;;;;;;;1999.90;999.90;;;;;;;20.82;55.47;95450.41;5068659;28;20519;-71
2022/08/03 00:53:16;;;;;;;1999.90;999.90;;;;;;;21.33;56.02;95528.53;5051460;28;20024;-71
2022/08/03 00:55:42;;;;;;;1999.90;999.90;;;;;;;20.72;55.89;95445.63;5069113;28;20063;-71
2022/08/03 00:58:09;;;;;;;1999.90;999.90;;;;;;;20.88;55.83;95470.63;5068395;28;20059;-72
2022/08/03 01:00:37;;;;;;;1999.90;999.90;;;;;;;20.49;55.70;95415.91;5069207;28;20029;-73
2022/08/03 01:03:07;;;;;;;1999.90;999.90;;;;;;;21.10;55.98;95512.31;5049652;28;20028;-71
2022/08/03 01:05:48;;;;;;;1999.90;999.90;;;;;;;21.16;56.09;95531.72;5031703;28;20051;-71
2022/08/03 01:08:25;;;;;;;1999.90;999.90;;;;;;;21.08;55.96;95511.88;5034310;28;21035;-71
2022/08/03 01:10:51;;;;;;;1999.90;999.90;;;;;;;21.14;55.92;95523.16;5070170;28;20020;-71
2022/08/03 01:13:47;;;;;;;1999.90;999.90;;;;;;;21.11;56.03;95516.56;5067417;28;20042;-71
2022/08/03 01:16:21;;;;;;;1999.90;999.90;;;;;;;21.10;56.23;95520.44;5068712;28;20672;-72
2022/08/03 01:18:59;;;;;;;1999.90;999.90;;;;;;;21.08;56.45;95516.50;5050700;28;20028;-71
2022/08/03 01:21:47;;;;;;;1999.90;999.90;;;;;;;21.08;56.62;95511.88;5068276;28;20032;-71
2022/08/03 01:24:33;;;;;;;1999.90;999.90;;;;;;;21.11;56.92;95515.78;5050548;28;20028;-70
2022/08/03 01:27:07;;;;;;;1999.90;999.90;;;;;;;21.17;56.28;95514.34;5069213;28;20120;-71
2022/08/03 01:29:45;;;;;;;1999.90;999.90;;;;;;;20.82;56.13;95458.53;5050669;28;20140;-70
2022/08/03 01:32:15;;;;;;;1999.90;999.90;;;;;;;20.89;55.96;95466.00;5052107;28;20041;-70
2022/08/03 01:34:46;;;;;;;1999.90;999.90;;;;;;;21.14;56.42;95505.03;5062651;28;20538;-70
2022/08/03 01:37:19;;;;;;;1999.90;999.90;;;;;;;20.93;56.12;95475.69;5051758;28;20116;-70
2022/08/03 01:39:44;;;;;;;1999.90;999.90;;;;;;;20.90;56.13;95472.97;5056498;28;20326;-70
2022/08/03 01:42:13;;;;;;;1999.90;999.90;;;;;;;21.11;56.03;95503.03;5049684;28;20461;-70
2022/08/03 01:44:41;;;;;;;1999.90;999.90;;;;;;;21.11;56.27;95505.75;5047149;28;20029;-70
2022/08/03 01:47:08;;;;;;;1999.90;999.90;;;;;;;20.84;56.44;95458.97;5073003;28;20052;-69
2022/08/03 01:49:38;;;;;;;1999.90;999.90;;;;;;;21.15;56.40;95509.28;5072371;28;20040;-70
2022/08/03 01:52:05;;;;;;;1999.90;999.90;;;;;;;21.06;56.31;95491.75;5073460;28;20128;-69
2022/08/03 01:54:36;;;;;;;1999.90;999.90;;;;;;;21.02;56.39;95489.75;5072835;28;20036;-70
2022/08/03 01:57:02;;;;;;;1999.90;999.90;;;;;;;20.85;56.27;95465.94;5071073;28;20086;-70
2022/08/03 01:59:31;;;;;;;1999.90;999.90;;;;;;;20.37;56.45;95410.63;5072919;28;20029;-69
2022/08/03 02:01:58;;;;;;;1999.90;999.90;;;;;;;20.34;56.63;95395.16;5072415;28;20082;-71
2022/08/03 02:04:27;;;;;;;1999.90;999.90;;;;;;;20.96;56.49;95502.03;5054905;28;20357;-69
2022/08/03 02:06:53;;;;;;;1999.90;999.90;;;;;;;20.57;56.58;95443.81;5072129;28;20028;-70
2022/08/03 02:09:21;;;;;;;1999.90;999.90;;;;;;;20.67;56.93;95481.84;5072949;28;20039;-70
2022/08/03 02:11:48;;;;;;;1999.90;999.90;;;;;;;20.86;57.12;95510.75;5069508;28;20024;-70
2022/08/03 02:14:13;;;;;;;1999.90;999.90;;;;;;;20.22;57.23;95404.22;5054736;28;20465;-70
2022/08/03 02:16:39;;;;;;;1999.90;999.90;;;;;;;19.87;57.14;95351.13;5042813;28;20035;-69
2022/08/03 02:19:07;;;;;;;1999.90;999.90;;;;;;;20.72;57.06;95475.34;5034970;28;20035;-71
2022/08/03 02:21:35;;;;;;;1999.90;999.90;;;;;;;20.71;57.30;95485.38;5064145;28;20067;-71
2022/08/03 02:24:03;;;;;;;1999.90;999.90;;;;;;;20.81;57.49;95496.75;5072285;28;20052;-70
2022/08/03 02:26:30;;;;;;;1999.90;999.90;;;;;;;20.37;57.47;95433.06;5061705;28;20032;-70
2022/08/03 02:28:58;;;;;;;1999.90;999.90;;;;;;;20.81;57.42;95496.75;5052814;28;20543;-70
2022/08/03 02:31:28;;;;;;;1999.90;999.90;;;;;;;19.97;57.20;95385.66;5062165;28;20093;-70
2022/08/03 02:33:57;;;;;;;1999.90;999.90;;;;;;;20.30;57.25;95429.44;5070609;28;20074;-71
2022/08/03 02:36:27;;;;;;;1999.90;999.90;;;;;;;20.58;57.46;95481.31;5072332;28;20024;-70
2022/08/03 02:38:59;;;;;;;1999.90;999.90;;;;;;;20.72;57.13;95500.47;5071326;28;20038;-70
2022/08/03 02:41:34;;;;;;;;;;;;;;;20.66;57.55;95501.13;5071972;28;20532;-70
2022/08/03 02:44:02;;;;;;;1999.90;999.90;;;;;;;20.05;57.78;95424.34;5071908;28;19924;-71
2022/08/03 02:46:31;;;;;;;1999.90;999.90;;;;;;;20.50;57.91;95490.44;5051810;28;20036;-70
2022/08/03 02:49:00;;;;;;;1999.90;999.90;;;;;;;20.55;57.64;95508.28;5071539;28;20021;-70
2022/08/03 02:51:28;;;;;;;1999.90;999.90;;;;;;;20.33;58.12;95488.94;5053450;28;20033;-70
2022/08/03 02:53:56;;;;;;;1999.90;999.90;;;;;;;20.08;58.25;95444.47;5071315;28;20028;-71
2022/08/03 02:56:24;;;;;;;1999.90;999.90;;;;;;;20.45;58.06;95499.56;5053271;28;20052;-70
2022/08/03 02:58:51;;;;;;;1999.90;999.90;;;;;;;20.26;58.45;95473.34;5071469;28;20032;-71
2022/08/03 03:01:20;;;;;;;1999.90;999.90;;;;;;;20.41;58.56;95504.13;5045168;28;20024;-71
2022/08/03 03:03:47;;;;;;;1999.90;999.90;;;;;;;19.63;58.92;95386.53;5071600;28;20095;-70
2022/08/03 03:06:15;;;;;;;1999.90;999.90;;;;;;;20.41;58.48;95492.53;5053023;28;20032;-72
2022/08/03 03:08:41;;;;;;;1999.90;999.90;;;;;;;19.88;58.47;95441.00;5071881;28;20028;-71
2022/08/03 03:11:07;;;;;;;1999.90;999.90;;;;;;;19.94;58.97;95437.66;5070142;28;20024;-71
2022/08/03 03:13:33;;;;;;;1999.90;999.90;;;;;;;20.38;58.83;95495.97;5071397;28;20555;-72
2022/08/03 03:16:03;;;;;;;1999.90;999.90;;;;;;;20.22;58.56;95467.13;5069941;28;20032;-71
2022/08/03 03:18:31;;;;;;;1999.90;999.90;;;;;;;19.86;58.41;95391.97;5053405;28;20037;-71
2022/08/03 03:20:59;;;;;;;1999.90;999.90;;;;;;;20.19;58.26;95446.22;5069746;28;20131;-71
2022/08/03 03:23:26;;;;;;;1999.90;999.90;;;;;;;19.83;58.05;95390.78;5053484;28;20129;-71
2022/08/03 03:25:54;;;;;;;1999.90;999.90;;;;;;;20.12;58.35;95465.00;5053072;28;20126;-71
2022/08/03 03:28:21;;;;;;;1999.90;999.90;;;;;;;20.26;57.90;95476.06;5070628;28;20029;-71
2022/08/03 03:30:47;;;;;;;1999.90;999.90;;;;;;;19.95;58.34;95436.50;5070913;28;20021;-71
2022/08/03 03:33:12;;;;;;;1999.90;999.90;;;;;;;19.83;58.60;95433.97;5071064;28;20024;-71
2022/08/03 03:35:40;;;;;;;1999.90;999.90;;;;;;;19.97;58.64;95449.66;5057370;28;20033;-70
2022/08/03 03:38:06;;;;;;;1999.90;999.90;;;;;;;20.29;58.94;95498.88;5051243;28;20500;-71
2022/08/03 03:40:31;;;;;;;1999.90;999.90;;;;;;;19.48;58.47;95370.00;5063885;28;20032;-72
2022/08/03 03:42:57;;;;;;;1999.90;999.90;;;;;;;19.94;58.50;95444.97;5070979;28;20095;-71
2022/08/03 03:45:23;;;;;;;1999.90;999.90;;;;;;;20.00;58.78;95470.53;5069648;28;20036;-71
2022/08/03 03:47:48;;;;;;;1999.90;999.90;;;;;;;19.67;58.74;95411.66;5053203;28;20082;-70
2022/08/03 03:50:16;;;;;;;1999.90;999.90;;;;;;;19.82;58.65;95440.50;5052754;28;20021;-71
2022/08/03 03:52:41;;;;;;;1999.90;999.90;;;;;;;19.97;58.50;95447.75;5052588;28;20516;-71
2022/08/03 03:55:07;;;;;;;1999.90;999.90;;;;;;;20.15;58.63;95490.50;5069295;28;20048;-71
2022/08/03 03:57:33;;;;;;;1999.90;999.90;;;;;;;19.45;58.68;95372.66;5070891;28;20119;-71
2022/08/03 03:59:59;;;;;;;1999.90;999.90;;;;;;;19.44;58.58;95379.94;5070146;28;20528;-71
2022/08/03 04:02:24;;;;;;;1999.90;999.90;;;;;;;20.22;58.73;95498.75;5069413;28;20040;-71
2022/08/03 04:13:19;;;;;;;1999.90;999.90;;;;;;;20.20;58.70;95487.53;5050357;28;20393;-72
2022/08/03 04:15:46;;;;;;;1999.90;999.90;;;;;;;19.99;58.76;95448.16;5058957;28;20020;-70
2022/08/03 04:18:13;;;;;;;1999.90;999.90;;;;;;;20.36;58.55;95504.41;5070428;28;20086;-72
2022/08/03 04:20:42;;;;;;;1999.90;999.90;;;;;;;19.45;58.53;95365.34;5069150;28;20120;-70
2022/08/03 04:23:08;;;;;;;1999.90;999.90;;;;;;;19.89;58.24;95412.84;5052472;28;20090;-70
2022/08/03 04:25:38;;;;;;;1999.90;999.90;;;;;;;20.51;58.14;95498.16;5066222;28;20027;-70
2022/08/03 04:28:04;;;;;;;1999.90;999.90;;;;;;;20.02;57.85;95397.31;5063075;28;20028;-70
2022/08/03 04:30:32;;;;;;;1999.90;999.90;;;;;;;20.50;57.36;95436.38;5063995;28;20028;-70
2022/08/03 04:32:58;;;;;;;1999.90;999.90;;;;;;;20.08;56.91;95361.53;5058066;28;20528;-70
2022/08/03 04:35:33;;;;;;;1999.90;999.90;;;;;;;19.72;56.80;95288.03;5051628;28;20054;-70
2022/08/03 04:38:02;;;;;;;1999.90;999.90;;;;;;;21.47;56.08;95507.09;5070316;28;20510;-69
2022/08/03 04:40:33;;;;;;;1999.90;999.90;;;;;;;21.75;55.51;95511.34;5068820;28;20630;-71
2022/08/03 04:43:00;;;;;;;1999.90;999.90;;;;;;;21.94;54.22;95505.78;5051701;28;20036;-68
2022/08/03 04:45:27;;;;;;;1999.90;999.90;;;;;;;21.98;53.83;95478.75;5067866;28;20028;-69
2022/08/03 04:47:53;;;;;;;1999.90;999.90;;;;;;;22.00;53.59;95455.56;5052011;28;20380;-72
2022/08/03 04:50:20;;;;;;;1999.90;999.90;;;;;;;22.16;52.97;95441.88;5069126;28;20024;-73
2022/08/03 04:52:45;;;;;;;1999.90;999.90;;;;;;;22.81;52.12;95503.69;5069777;28;20107;-69
2022/08/03 04:55:11;;;;;;;1999.90;999.90;;;;;;;23.09;51.46;95521.41;5050927;28;20106;-71
2022/08/03 04:57:36;;;;;;;1999.90;999.90;;;;;;;23.13;50.91;95495.06;5051959;28;20031;-68
2022/08/03 05:00:04;;;;;;;1999.90;999.90;;;;;;;22.79;50.81;95421.91;5056554;28;20117;-71
2022/08/03 05:02:30;;;;;;;1999.90;999.90;;;;;;;23.54;49.95;95519.41;5068819;28;20033;-70
2022/08/03 05:04:56;;;;;;;1999.90;999.90;;;;;;;23.40;49.95;95470.47;5040545;28;20140;-69
2022/08/03 05:07:23;;;;;;;1999.90;999.90;;;;;;;23.64;49.83;95486.13;5041371;28;20465;-70
2022/08/03 05:09:48;;;;;;;1999.90;999.90;;;;;;;23.87;49.61;95507.59;5046804;28;20067;-70
2022/08/03 05:12:13;;;;;;;1999.90;999.90;;;;;;;24.05;48.78;95516.59;5069296;28;20017;-69
2022/08/03 05:14:39;;;;;;;1999.90;999.90;;;;;;;24.22;48.71;95519.81;5068398;28;20039;-69
2022/08/03 05:17:05;;;;;;;1999.90;999.90;;;;;;;23.73;48.70;95429.53;5068514;28;20071;-69
2022/08/03 05:19:31;;;;;;;1999.90;999.90;;;;;;;24.18;48.37;95489.09;5050341;28;20032;-70
2022/08/03 05:21:56;;;;;;;1999.90;999.90;;;;;;;24.23;47.98;95491.47;5051701;28;20021;-69
2022/08/03 05:24:21;;;;;;;1999.90;999.90;;;;;;;24.49;48.26;95510.19;5066789;28;20043;-69
2022/08/03 05:26:47;;;;;;;1999.90;999.90;;;;;;;24.50;47.45;95497.38;5051323;28;20116;-70
2022/08/03 05:29:12;;;;;;;1999.90;999.90;;;;;;;24.68;47.53;95511.81;5068080;28;20032;-70
2022/08/03 05:31:37;;;;;;;1999.90;999.90;;;;;;;24.92;47.43;95528.53;5044514;28;20030;-68
2022/08/03 05:34:03;;;;;;;1999.90;999.90;;;;;;;25.04;47.16;95534.41;5049506;28;20024;-68
2022/08/03 05:36:28;;;;;;;1999.90;999.90;;;;;;;25.07;46.88;95519.25;5043092;28;20040;-68
2022/08/03 05:38:53;;;;;;;1999.90;999.90;;;;;;;25.01;46.99;95507.19;5065572;28;20040;-69
2022/08/03 05:41:19;;;;;;;1999.90;999.90;;;;;;;24.92;46.68;95504.06;5061177;28;20100;-69
2022/08/03 05:43:45;;;;;;;1999.90;999.90;;;;;;;25.06;46.64;95534.00;5043343;28;20039;-71
2022/08/03 05:46:10;;;;;;;1999.90;999.90;;;;;;;25.01;46.67;95531.66;5044752;28;20520;-70
2022/08/03 05:48:36;;;;;;;1999.90;999.90;;;;;;;24.82;46.96;95514.53;5051487;28;20025;-73
2022/08/03 05:51:03;;;;;;;1999.90;999.90;;;;;;;24.93;47.17;95533.63;5032246;28;20112;-72
2022/08/03 05:53:32;;;;;;;1999.90;999.90;;;;;;;24.79;47.09;95512.59;5050478;28;20712;-69
2022/08/03 05:55:58;;;;;;;1999.90;999.90;;;;;;;24.89;47.56;95524.66;5069760;28;20033;-68
2022/08/03 05:58:23;;;;;;;1999.90;999.90;;;;;;;24.87;47.02;95522.31;5047908;28;20086;-70
2022/08/03 06:00:49;;;;;;;1999.90;999.90;;;;;;;24.74;47.18;95499.38;5051456;28;20033;-70
2022/08/03 06:03:14;;;;;;;1999.90;999.90;;;;;;;24.75;47.42;95492.00;5051219;28;20115;-69
2022/08/03 06:05:39;;;;;;;1999.90;999.90;;;;;;;25.03;47.71;95532.06;5069447;28;20024;-68
2022/08/03 06:08:04;;;;;;;1999.90;999.90;;;;;;;24.85;47.34;95494.72;5069716;28;20065;-68
2022/08/03 06:10:30;;;;;;;1999.90;999.90;;;;;;;24.91;47.31;95500.56;5068942;28;20033;-70
2022/08/03 06:12:55;;;;;;;1999.90;999.90;;;;;;;24.90;47.22;95499.00;5049312;28;20119;-71
2022/08/03 06:15:20;;;;;;;1999.90;999.90;;;;;;;25.24;47.12;95534.84;5047135;28;20381;-70
2022/08/03 06:17:50;;;;;;;1999.90;999.90;;;;;;;25.32;46.50;95541.06;5049304;28;20779;-70
2022/08/03 06:20:18;;;;;;;1999.90;999.90;;;;;;;25.22;45.94;95523.53;5049117;28;20489;-70
2022/08/03 06:22:44;;;;;;;1999.90;999.90;;;;;;;25.40;45.82;95540.66;5049127;28;20021;-69
2022/08/03 06:25:09;;;;;;;1999.90;999.90;;;;;;;25.50;45.66;95536.38;5031450;28;20025;-68
2022/08/03 06:27:38;;;;;;;1999.90;999.90;;;;;;;25.48;45.71;95521.59;5049257;28;20025;-68
2022/08/03 06:30:05;;;;;;;1999.90;999.90;;;;;;;25.62;45.86;95527.81;5052768;28;20025;-70
2022/08/03 06:32:31;;;;;;;1999.90;999.90;;;;;;;25.70;45.17;95525.84;5054517;28;20032;-70
2022/08/03 06:34:56;;;;;;;1999.90;999.90;;;;;;;25.72;45.26;95520.78;5055209;28;20021;-69
2022/08/03 06:37:22;;;;;;;1999.90;999.90;;;;;;;25.77;44.93;95517.69;5054847;28;20025;-69
2022/08/03 06:39:47;;;;;;;1999.90;999.90;;;;;;;25.78;44.92;95518.47;5072909;28;20469;-69
2022/08/03 06:42:12;;;;;;;1999.90;999.90;;;;;;;25.86;44.60;95509.88;5054759;28;20029;-69
2022/08/03 06:44:37;;;;;;;1999.90;999.90;;;;;;;25.58;43.11;95488.09;5055697;28;20385;-71
2022/08/03 06:47:03;;;;;;;1999.90;999.90;;;;;;;25.83;43.93;95526.22;5043844;22;20050;-68
2022/08/03 06:49:28;;;;;;;1999.90;999.90;;;;;;;25.55;44.11;95530.53;5047667;28;20018;-68
2022/08/03 06:51:53;;;;;;;1999.90;999.90;;;;;;;26.05;43.57;95538.66;5032024;28;20107;-67
2022/08/03 06:54:21;;;;;;;1999.90;999.90;;;;;;;26.25;43.22;95544.41;5037249;28;20475;-68
2022/08/03 06:56:46;;;;;;;1999.90;999.90;;;;;;;26.25;42.97;95532.72;5012322;28;20446;-70
2022/08/03 06:59:12;;;;;;;1999.90;999.90;;;;;;;26.23;42.59;95552.22;5009593;28;20030;-67
2022/08/03 07:01:37;;;;;;;1999.90;999.90;;;;;;;26.02;42.79;95530.47;5011780;28;20033;-66
2022/08/03 07:04:02;;;;;;;1999.90;999.90;;;;;;;26.38;42.27;95544.75;5010749;28;20493;-68
2022/08/03 07:06:28;;;;;;;1999.90;999.90;;;;;;;26.44;42.24;95535.78;5027472;28;20072;-67
2022/08/03 07:08:53;;;;;;;1999.90;999.90;;;;;;;26.47;41.83;95536.19;5011172;28;20029;-68
2022/08/03 07:11:18;;;;;;;1999.90;999.90;;;;;;;26.33;41.82;95526.84;5010844;28;20113;-67
2022/08/03 07:13:44;;;;;;;1999.90;999.90;;;;;;;26.37;41.20;95538.53;5011149;28;20383;-69
2022/08/03 07:16:09;;;;;;;1999.90;999.90;;;;;;;26.16;41.40;95505.91;5010923;28;20124;-67
2022/08/03 07:18:38;;;;;;;1999.90;999.90;;;;;;;26.34;41.83;95533.84;5011457;28;20072;-67
2022/08/03 07:21:03;;;;;;;1999.90;999.90;;;;;;;26.48;41.50;95543.19;5011777;28;20050;-67
2022/08/03 07:23:29;;;;;;;1999.90;999.90;;;;;;;26.73;41.62;95530.19;5011336;28;20062;-66
2022/08/03 07:25:54;;;;;;;1999.90;999.90;;;;;;;26.75;41.34;95530.56;5011874;28;20022;-67
2022/08/03 07:28:19;;;;;;;1999.90;999.90;;;;;;;26.80;41.75;95532.88;5011791;28;20029;-67
2022/08/03 07:30:45;;;;;;;1999.90;999.90;;;;;;;26.85;41.04;95524.25;5011692;28;20505;-67
2022/08/03 07:33:10;;;;;;;1999.90;999.90;;;;;;;27.03;40.50;95534.31;5009906;28;20475;-67
2022/08/03 07:35:36;;;;;;;1999.90;999.90;;;;;;;27.15;40.27;95520.97;5010254;28;20546;-67
2022/08/03 07:38:01;;;;;;;1999.90;999.90;;;;;;;27.20;40.09;95517.81;5010008;28;20033;-67
2022/08/03 07:40:27;;;;;;;1999.90;999.90;;;;;;;27.23;39.84;95529.91;5011172;28;20794;-67
2022/08/03 07:42:52;;;;;;;1999.90;999.90;;;;;;;27.24;40.28;95497.91;5011545;28;20045;-67
2022/08/03 07:45:17;;;;;;;1999.90;999.90;;;;;;;27.31;39.54;95500.56;5026160;28;20048;-68
2022/08/03 07:47:43;;;;;;;1999.90;999.90;;;;;;;27.28;39.10;95513.06;5026525;28;20471;-68
2022/08/03 07:50:08;;;;;;;1999.90;999.90;;;;;;;27.55;39.42;95501.50;5011295;28;20030;-67
2022/08/03 07:52:49;;;;;;;1999.90;999.90;;;;;;;27.35;39.57;95517.69;5026118;28;20120;-67
2022/08/03 07:55:15;;;;;;;1999.90;999.90;;;;;;;27.58;39.07;95517.09;5009917;28;20057;-68
2022/08/03 07:57:41;;;;;;;1999.90;999.90;;;;;;;27.67;39.00;95518.16;5011033;28;20273;-67
2022/08/03 08:00:13;;;;;;;1999.90;999.90;;;;;;;27.66;38.98;95529.50;5010078;28;20030;-67
2022/08/03 08:02:39;;;;;;;1999.90;999.90;;;;;;;27.68;38.59;95516.97;5009582;28;20037;-67
2022/08/03 08:05:05;;;;;;;1999.90;999.90;;;;;;;27.50;38.88;95477.38;5011280;28;20026;-67
2022/08/03 08:07:30;;;;;;;1999.90;999.90;;;;;;;28.08;37.77;95517.38;5010929;28;20109;-68
2022/08/03 08:09:56;;;;;;;1999.90;999.90;;;;;;;27.98;38.06;95505.38;5026177;28;20029;-67
2022/08/03 08:12:21;;;;;;;1999.90;999.90;;;;;;;28.31;38.37;95514.00;5010428;28;20029;-67
2022/08/03 08:14:46;;;;;;;1999.90;999.90;;;;;;;28.41;37.86;95521.31;5009584;28;20022;-67
2022/08/03 08:17:12;;;;;;;1999.90;999.90;;;;;;;28.02;38.45;95527.22;5026096;28;20045;-69
2022/08/03 08:19:38;;;;;;;1999.90;999.90;;;;;;;28.15;37.24;95520.06;5010985;28;20053;-67
2022/08/03 08:22:03;;;;;;;1999.90;999.90;;;;;;;28.04;37.47;95507.66;5010272;28;20501;-67
2022/08/03 08:24:32;;;;;;;1999.90;999.90;;;;;;;28.25;37.40;95499.19;5010659;28;20112;-68
2022/08/03 08:26:58;;;;;;;1999.90;999.90;;;;;;;28.46;37.39;95498.22;5026017;28;20101;-68
2022/08/03 08:29:24;;;;;;;1999.90;999.90;;;;;;;28.26;37.42;95513.69;5025708;28;20052;-67
2022/08/03 08:31:49;;;;;;;1999.90;999.90;;;;;;;28.37;36.28;95492.47;5009108;28;20119;-67
2022/08/03 08:34:15;;;;;;;1999.90;999.90;;;;;;;28.02;36.93;95510.03;5010300;28;20034;-67
2022/08/03 08:36:41;;;;;;;1999.90;999.90;;;;;;;28.43;36.19;95496.28;5009323;28;20119;-67
2022/08/03 08:39:06;;;;;;;1999.90;999.90;;;;;;;28.52;36.40;95493.03;5009394;28;20041;-67
2022/08/03 08:41:34;;;;;;;1999.90;999.90;;;;;;;28.65;36.07;95485.81;5010462;28;20033;-67
2022/08/03 08:44:00;;;;;;;1999.90;999.90;;;;;;;28.91;35.78;95498.72;5010064;28;20053;-69
2022/08/03 08:46:28;;;;;;;1999.90;999.90;;;;;;;29.19;35.80;95505.00;5009060;28;20061;-67
2022/08/03 08:48:54;;;;;;;1999.90;999.90;;;;;;;28.52;36.75;95514.94;5009155;28;20026;-67
2022/08/03 08:51:21;;;;;;;1999.90;999.90;;;;;;;28.92;35.95;95516.72;5008704;28;20029;-68
2022/08/03 08:53:51;;;;;;;1999.90;999.90;;;;;;;28.99;35.63;95474.78;5009816;28;20030;-67
2022/08/03 08:56:18;;;;;;;1999.90;999.90;;;;;;;29.13;35.83;95480.03;5009633;28;20018;-67
2022/08/03 08:58:50;;;;;;;1999.90;999.90;;;;;;;29.12;36.47;95491.38;5010228;28;20060;-67
2022/08/03 09:01:18;;;;;;;1999.90;999.90;;;;;;;29.33;34.61;95495.75;5008969;28;20044;-68
2022/08/03 09:03:44;;;;;;;1999.90;999.90;;;;;;;29.60;34.81;95499.22;5009767;28;20022;-68
2022/08/03 09:06:09;;;;;;;1999.90;999.90;;;;;;;29.36;34.42;95483.97;5024684;28;20022;-67
2022/08/03 09:08:34;;;;;;;1999.90;999.90;;;;;;;29.65;33.67;95496.00;5009667;28;20112;-68
2022/08/03 09:11:00;;;;;;;1999.90;999.90;;;;;;;29.68;33.83;95492.41;5025037;28;20025;-69
2022/08/03 09:13:25;;;;;;;1999.90;999.90;;;;;;;29.79;33.34;95478.53;5025057;28;20021;-69
2022/08/03 09:16:10;;;;;;;1999.90;999.90;;;;;;;30.06;31.82;95496.81;5009807;28;20475;-65
2022/08/03 09:18:36;;;;;;;1999.90;999.90;;;;;;;30.07;31.93;95496.41;5009787;28;20030;-68
2022/08/03 09:21:19;;;;;;;1999.90;999.90;;;;;;;30.03;31.76;95503.91;5009345;28;20029;-66
2022/08/03 09:23:46;;;;;;;1999.90;999.90;;;;;;;30.03;31.04;95501.94;5009483;28;20029;-68
2022/08/03 09:26:19;;;;;;;1999.90;999.90;;;;;;;29.95;31.71;95495.06;5009587;28;20018;-69
2022/08/03 09:28:45;;;;;;;1999.90;999.90;;;;;;;29.89;31.93;95498.69;5008563;28;20026;-66
2022/08/03 09:31:10;;;;;;;1999.90;999.90;;;;;;;29.77;32.05;95492.66;5024650;28;20037;-67
2022/08/03 09:33:46;;;;;;;1999.90;999.90;;;;;;;29.89;32.25;95493.22;5009447;28;20125;-67
2022/08/03 09:36:42;;;;;;;1999.90;999.90;;;;;;;29.37;31.25;95436.19;5008184;28;20019;-67
2022/08/03 09:39:13;;;;;;;1999.90;999.90;;;;;;;29.88;29.90;95476.00;5009637;28;20033;-67
2022/08/03 09:41:44;;;;;;;1999.90;999.90;;;;;;;30.27;30.50;95497.19;5008145;28;20155;-67
2022/08/03 09:44:09;;;;;;;1999.90;999.90;;;;;;;30.24;30.48;95500.00;5009205;28;20050;-67
2022/08/03 09:46:57;;;;;;;1999.90;999.90;;;;;;;30.34;29.65;95506.47;5009360;28;20065;-67
2022/08/03 09:49:23;;;;;;;1999.90;999.90;;;;;;;30.46;29.64;95498.38;5006552;28;20461;-67
2022/08/03 09:51:48;;;;;;;1999.90;999.90;;;;;;;30.39;29.48;95481.28;5008439;28;20037;-67
2022/08/03 09:54:30;;;;;;;1999.90;999.90;;;;;;;30.50;30.32;95504.53;5009193;28;20026;-67
2022/08/03 09:56:56;;;;;;;1999.90;999.90;;;;;;;30.81;30.33;95504.31;5008529;28;20033;-67
2022/08/03 09:59:29;;;;;;;1999.90;999.90;;;;;;;30.51;30.28;95491.63;5009097;28;20049;-67
2022/08/03 10:01:56;;;;;;;1999.90;999.90;;;;;;;30.40;29.99;95482.81;5008254;28;20028;-68
2022/08/03 10:04:22;;;;;;;1999.90;999.90;;;;;;;30.67;28.22;95496.38;5009994;28;20036;-67
2022/08/03 10:07:08;;;;;;;1999.90;999.90;;;;;;;30.90;28.39;95504.50;5012082;28;20052;-67
2022/08/03 10:09:35;;;;;;;1999.90;999.90;;;;;;;30.73;28.15;95489.19;5013106;28;20390;-67
2022/08/03 10:12:11;;;;;;;1999.90;999.90;;;;;;;30.97;27.80;95487.88;5013370;28;20037;-67
2022/08/03 10:14:38;;;;;;;1999.90;999.90;;;;;;;30.91;27.26;95495.03;5011577;28;20092;-66
2022/08/03 10:17:04;;;;;;;1999.90;999.90;;;;;;;30.93;27.50;95489.91;5011489;28;20113;-67
2022/08/03 10:19:29;;;;;;;1999.90;999.90;;;;;;;30.53;28.22;95495.47;5011332;28;20453;-67
2022/08/03 10:21:59;;;;;;;1999.90;999.90;;;;;;;30.54;28.12;95477.03;5012819;28;20034;-66
2022/08/03 10:24:28;;;;;;;1999.90;999.90;;;;;;;30.64;28.21;95476.03;5012758;28;20030;-67
2022/08/03 10:27:02;;;;;;;1999.90;999.90;;;;;;;30.84;28.03;95481.50;5012889;28;20272;-68
2022/08/03 10:29:29;;;;;;;1999.90;999.90;;;;;;;31.02;27.80;95479.09;5012745;28;20077;-67
2022/08/03 10:31:57;;;;;;;1999.90;999.90;;;;;;;31.17;27.63;95484.25;5012546;28;20041;-67
2022/08/03 10:34:25;;;;;;;1999.90;999.90;;;;;;;31.05;27.90;95475.50;5012145;28;20410;-69
2022/08/03 10:36:54;;;;;;;1999.90;999.90;;;;;;;30.77;27.73;95478.91;5011284;28;20017;-67
2022/08/03 10:39:22;;;;;;;1999.90;999.90;;;;;;;30.81;27.16;95457.63;5012409;28;20030;-67
2022/08/03 10:41:50;;;;;;;1999.90;999.90;;;;;;;30.99;25.96;95471.72;5011369;28;20108;-67
2022/08/03 10:44:22;;;;;;;1999.90;999.90;;;;;;;30.79;25.34;95477.28;5010903;28;20026;-68
2022/08/03 10:46:49;;;;;;;1999.90;999.90;;;;;;;31.17;25.39;95463.06;5012215;28;20176;-68
2022/08/03 10:49:16;;;;;;;1999.90;999.90;;;;;;;31.00;25.49;95481.50;5012480;28;20029;-67
2022/08/03 10:51:44;;;;;;;1999.90;999.90;;;;;;;31.01;26.32;95443.81;5012122;28;20066;-68
2022/08/03 10:57:59;;;;;;;1999.90;999.90;;;;;;;31.61;25.44;95471.00;5010965;28;20117;-67
2022/08/03 11:00:26;;;;;;;1999.90;999.90;;;;;;;31.22;25.76;95464.47;5000206;28;20411;-67
2022/08/03 11:03:09;;;;;;;1999.90;999.90;;;;;;;31.58;24.20;95454.19;5011686;28;20068;-68
2022/08/03 11:05:40;;;;;;;1999.90;999.90;;;;;;;31.34;22.18;95457.56;5012116;28;20026;-67
2022/08/03 11:08:20;;;;;;;1999.90;999.90;;;;;;;30.80;23.99;95453.31;5012218;28;20030;-67
2022/08/03 11:10:47;;;;;;;1999.90;999.90;;;;;;;31.27;23.84;95440.06;5011041;28;20034;-68